sensor_id;sensor_type;location;lat;lon;timestamp;pressure;altitude;pressure_sealevel;temperature;humidity
52957;BME280;38819;42.692;23.342;2023-09-30T00:01:21;95704.97;;;17.93;57.46
52957;BME280;38819;42.692;23.342;2023-09-30T00:03:47;95712.50;;;17.96;57.68
52957;BME280;38819;42.692;23.342;2023-09-30T00:06:12;95706.25;;;17.96;57.50
52957;BME280;38819;42.692;23.342;2023-09-30T00:08:38;95705.94;;;17.98;57.05
52957;BME280;38819;42.692;23.342;2023-09-30T00:11:05;95706.72;;;17.98;57.28
52957;BME280;38819;42.692;23.342;2023-09-30T00:13:31;95700.28;;;17.94;57.20
52957;BME280;38819;42.692;23.342;2023-09-30T00:15:57;95702.38;;;17.97;56.75
52957;BME280;38819;42.692;23.342;2023-09-30T00:18:22;95714.59;;;18.00;56.46
52957;BME280;38819;42.692;23.342;2023-09-30T00:20:48;95700.47;;;17.98;56.77
52957;BME280;38819;42.692;23.342;2023-09-30T00:23:13;95698.97;;;18.00;57.01
52957;BME280;38819;42.692;23.342;2023-09-30T00:25:38;95706.84;;;18.02;56.95
52957;BME280;38819;42.692;23.342;2023-09-30T00:28:04;95702.69;;;18.04;56.60
52957;BME280;38819;42.692;23.342;2023-09-30T00:30:30;95697.34;;;18.08;56.81
52957;BME280;38819;42.692;23.342;2023-09-30T00:32:55;95694.16;;;17.97;56.83
52957;BME280;38819;42.692;23.342;2023-09-30T00:35:21;95695.31;;;17.96;56.93
52957;BME280;38819;42.692;23.342;2023-09-30T00:37:46;95692.41;;;17.92;57.32
52957;BME280;38819;42.692;23.342;2023-09-30T00:40:12;95696.63;;;17.90;57.27
52957;BME280;38819;42.692;23.342;2023-09-30T00:42:39;95706.25;;;17.87;57.55
52957;BME280;38819;42.692;23.342;2023-09-30T00:45:05;95699.16;;;17.95;57.29
52957;BME280;38819;42.692;23.342;2023-09-30T00:47:31;95706.72;;;17.98;57.31
52957;BME280;38819;42.692;23.342;2023-09-30T00:49:57;95696.94;;;17.88;57.05
52957;BME280;38819;42.692;23.342;2023-09-30T00:52:22;95690.38;;;17.89;57.15
52957;BME280;38819;42.692;23.342;2023-09-30T00:54:49;95696.44;;;17.95;57.26
52957;BME280;38819;42.692;23.342;2023-09-30T00:57:15;95689.22;;;17.90;57.00
52957;BME280;38819;42.692;23.342;2023-09-30T00:59:41;95688.88;;;17.92;57.25
52957;BME280;38819;42.692;23.342;2023-09-30T01:02:06;95694.00;;;18.02;57.13
52957;BME280;38819;42.692;23.342;2023-09-30T01:04:32;95692.72;;;18.00;57.31
52957;BME280;38819;42.692;23.342;2023-09-30T01:06:58;95679.34;;;18.07;57.15
52957;BME280;38819;42.692;23.342;2023-09-30T01:09:24;95682.41;;;18.05;57.37
52957;BME280;38819;42.692;23.342;2023-09-30T01:11:50;95687.44;;;17.94;57.67
52957;BME280;38819;42.692;23.342;2023-09-30T01:14:31;95686.94;;;17.92;58.39
52957;BME280;38819;42.692;23.342;2023-09-30T01:16:57;95681.97;;;17.94;58.32
52957;BME280;38819;42.692;23.342;2023-09-30T01:19:23;95681.69;;;17.78;59.09
52957;BME280;38819;42.692;23.342;2023-09-30T01:21:54;95679.75;;;17.88;58.67
52957;BME280;38819;42.692;23.342;2023-09-30T01:24:24;95679.09;;;17.91;58.46
52957;BME280;38819;42.692;23.342;2023-09-30T01:26:50;95689.22;;;17.82;59.22
52957;BME280;38819;42.692;23.342;2023-09-30T01:29:15;95688.44;;;17.81;59.37
52957;BME280;38819;42.692;23.342;2023-09-30T01:31:42;95693.25;;;17.84;59.18
52957;BME280;38819;42.692;23.342;2023-09-30T01:34:08;95693.59;;;17.74;58.76
52957;BME280;38819;42.692;23.342;2023-09-30T01:36:36;95690.19;;;17.77;58.33
52957;BME280;38819;42.692;23.342;2023-09-30T01:39:01;95687.16;;;17.78;57.66
52957;BME280;38819;42.692;23.342;2023-09-30T01:41:27;95685.56;;;17.77;58.29
52957;BME280;38819;42.692;23.342;2023-09-30T01:43:53;95688.75;;;17.80;58.76
52957;BME280;38819;42.692;23.342;2023-09-30T01:46:18;95681.50;;;17.84;58.17
52957;BME280;38819;42.692;23.342;2023-09-30T01:48:44;95684.06;;;17.89;57.80
52957;BME280;38819;42.692;23.342;2023-09-30T01:51:09;95688.88;;;17.92;58.24
52957;BME280;38819;42.692;23.342;2023-09-30T01:53:35;95677.97;;;17.92;58.04
52957;BME280;38819;42.692;23.342;2023-09-30T01:56:00;95680.56;;;17.88;58.81
52957;BME280;38819;42.692;23.342;2023-09-30T01:58:25;95676.84;;;17.84;58.83
52957;BME280;38819;42.692;23.342;2023-09-30T02:01:02;95673.78;;;17.86;58.32
52957;BME280;38819;42.692;23.342;2023-09-30T02:03:27;95676.03;;;17.84;58.29
52957;BME280;38819;42.692;23.342;2023-09-30T02:05:54;95676.84;;;17.84;58.25
52957;BME280;38819;42.692;23.342;2023-09-30T02:08:20;95681.88;;;17.73;58.42
52957;BME280;38819;42.692;23.342;2023-09-30T02:10:45;95687.50;;;17.68;57.87
52957;BME280;38819;42.692;23.342;2023-09-30T02:13:10;95680.28;;;17.64;58.17
52957;BME280;38819;42.692;23.342;2023-09-30T02:15:39;95674.53;;;17.56;57.92
52957;BME280;38819;42.692;23.342;2023-09-30T02:18:07;95672.91;;;17.55;57.66
52957;BME280;38819;42.692;23.342;2023-09-30T02:20:33;95685.00;;;17.37;58.00
52957;BME280;38819;42.692;23.342;2023-09-30T02:22:59;95685.03;;;17.28;57.98
52957;BME280;38819;42.692;23.342;2023-09-30T02:25:24;95684.56;;;17.26;58.25
52957;BME280;38819;42.692;23.342;2023-09-30T02:27:50;95678.28;;;17.26;58.24
52957;BME280;38819;42.692;23.342;2023-09-30T02:30:16;95686.00;;;17.15;57.84
52957;BME280;38819;42.692;23.342;2023-09-30T02:32:42;95682.31;;;17.19;57.75
52957;BME280;38819;42.692;23.342;2023-09-30T02:35:11;95677.50;;;17.16;57.29
52957;BME280;38819;42.692;23.342;2023-09-30T02:37:37;95686.00;;;17.23;56.82
52957;BME280;38819;42.692;23.342;2023-09-30T02:40:06;95687.47;;;17.03;56.44
52957;BME280;38819;42.692;23.342;2023-09-30T02:42:39;95686.03;;;16.97;56.71
52957;BME280;38819;42.692;23.342;2023-09-30T02:45:06;95683.63;;;16.96;57.00
52957;BME280;38819;42.692;23.342;2023-09-30T02:47:33;95682.81;;;16.95;56.50
52957;BME280;38819;42.692;23.342;2023-09-30T02:49:59;95680.91;;;16.96;56.67
52957;BME280;38819;42.692;23.342;2023-09-30T02:52:25;95683.13;;;16.85;56.33
52957;BME280;38819;42.692;23.342;2023-09-30T02:54:50;95682.16;;;16.81;56.46
52957;BME280;38819;42.692;23.342;2023-09-30T02:57:17;95689.25;;;16.91;56.35
52957;BME280;38819;42.692;23.342;2023-09-30T02:59:43;95677.97;;;16.83;57.36
52957;BME280;38819;42.692;23.342;2023-09-30T03:02:10;95678.94;;;16.79;57.35
52957;BME280;38819;42.692;23.342;2023-09-30T03:04:36;95681.84;;;16.82;57.12
52957;BME280;38819;42.692;23.342;2023-09-30T03:07:02;95682.47;;;16.79;57.91
52957;BME280;38819;42.692;23.342;2023-09-30T03:09:27;95682.63;;;16.74;58.06
52957;BME280;38819;42.692;23.342;2023-09-30T03:11:53;95676.53;;;16.68;58.93
52957;BME280;38819;42.692;23.342;2023-09-30T03:14:21;95674.59;;;16.60;59.13
52957;BME280;38819;42.692;23.342;2023-09-30T03:16:47;95681.03;;;16.56;59.50
52957;BME280;38819;42.692;23.342;2023-09-30T03:19:13;95689.84;;;16.53;59.44
52957;BME280;38819;42.692;23.342;2023-09-30T03:21:41;95692.41;;;16.58;59.31
52957;BME280;38819;42.692;23.342;2023-09-30T03:24:07;95691.31;;;16.67;59.21
52957;BME280;38819;42.692;23.342;2023-09-30T03:26:33;95688.41;;;16.64;59.26
52957;BME280;38819;42.692;23.342;2023-09-30T03:28:58;95688.53;;;16.50;59.89
52957;BME280;38819;42.692;23.342;2023-09-30T03:31:24;95680.66;;;16.40;60.11
52957;BME280;38819;42.692;23.342;2023-09-30T03:33:50;95685.19;;;16.44;59.60
52957;BME280;38819;42.692;23.342;2023-09-30T03:36:22;95680.66;;;16.40;60.26
52957;BME280;38819;42.692;23.342;2023-09-30T03:38:52;95682.13;;;16.37;59.55
52957;BME280;38819;42.692;23.342;2023-09-30T03:41:24;95683.56;;;16.43;60.10
52957;BME280;38819;42.692;23.342;2023-09-30T03:43:50;95681.66;;;16.44;59.45
52957;BME280;38819;42.692;23.342;2023-09-30T03:46:16;95681.47;;;16.40;59.48
52957;BME280;38819;42.692;23.342;2023-09-30T03:48:42;95680.66;;;16.31;60.77
52957;BME280;38819;42.692;23.342;2023-09-30T03:51:12;95680.34;;;16.33;60.42
52957;BME280;38819;42.692;23.342;2023-09-30T03:53:44;95679.41;;;16.37;60.13
52957;BME280;38819;42.692;23.342;2023-09-30T03:56:10;95683.88;;;16.33;60.76
52957;BME280;38819;42.692;23.342;2023-09-30T03:58:42;95682.59;;;16.30;60.18
52957;BME280;38819;42.692;23.342;2023-09-30T04:01:09;95684.66;;;16.34;60.36
52957;BME280;38819;42.692;23.342;2023-09-30T04:03:38;95685.31;;;16.30;59.37
52957;BME280;38819;42.692;23.342;2023-09-30T04:06:05;95685.13;;;16.27;59.36
52957;BME280;38819;42.692;23.342;2023-09-30T04:08:32;95692.19;;;16.28;60.36
52957;BME280;38819;42.692;23.342;2023-09-30T04:11:02;95688.00;;;16.22;60.28
52957;BME280;38819;42.692;23.342;2023-09-30T04:13:30;95694.28;;;16.22;60.06
52957;BME280;38819;42.692;23.342;2023-09-30T04:15:56;95693.09;;;16.06;59.15
52957;BME280;38819;42.692;23.342;2023-09-30T04:18:24;95690.66;;;15.96;59.59
52957;BME280;38819;42.692;23.342;2023-09-30T04:20:52;95693.53;;;15.90;59.74
52957;BME280;38819;42.692;23.342;2023-09-30T04:23:17;95699.78;;;15.91;59.54
52957;BME280;38819;42.692;23.342;2023-09-30T04:25:45;95701.06;;;15.93;59.48
52957;BME280;38819;42.692;23.342;2023-09-30T04:28:12;95698.97;;;15.90;59.78
52957;BME280;38819;42.692;23.342;2023-09-30T04:30:38;95709.06;;;15.90;59.74
52957;BME280;38819;42.692;23.342;2023-09-30T04:33:04;95708.09;;;15.86;59.35
52957;BME280;38819;42.692;23.342;2023-09-30T04:35:33;95714.97;;;15.83;59.41
52957;BME280;38819;42.692;23.342;2023-09-30T04:38:00;95710.97;;;15.81;59.62
52957;BME280;38819;42.692;23.342;2023-09-30T04:40:27;95714.16;;;15.83;59.62
52957;BME280;38819;42.692;23.342;2023-09-30T04:42:53;95715.00;;;15.92;59.90
52957;BME280;38819;42.692;23.342;2023-09-30T04:45:23;95719.50;;;15.65;59.63
52957;BME280;38819;42.692;23.342;2023-09-30T04:47:50;95711.66;;;15.64;59.64
52957;BME280;38819;42.692;23.342;2023-09-30T04:50:15;95717.84;;;15.55;60.06
52957;BME280;38819;42.692;23.342;2023-09-30T04:52:41;95722.47;;;15.55;59.62
52957;BME280;38819;42.692;23.342;2023-09-30T04:55:07;95732.56;;;15.54;59.87
52957;BME280;38819;42.692;23.342;2023-09-30T04:57:37;95723.59;;;15.54;60.14
52957;BME280;38819;42.692;23.342;2023-09-30T05:00:03;95718.16;;;15.54;60.03
52957;BME280;38819;42.692;23.342;2023-09-30T05:02:36;95719.81;;;15.64;59.91
52957;BME280;38819;42.692;23.342;2023-09-30T05:05:01;95724.00;;;15.70;59.77
52957;BME280;38819;42.692;23.342;2023-09-30T05:07:28;95723.69;;;15.71;59.88
52957;BME280;38819;42.692;23.342;2023-09-30T05:09:54;95725.13;;;15.69;59.81
52957;BME280;38819;42.692;23.342;2023-09-30T05:12:19;95726.88;;;15.73;60.15
52957;BME280;38819;42.692;23.342;2023-09-30T05:14:45;95734.03;;;15.83;60.11
52957;BME280;38819;42.692;23.342;2023-09-30T05:17:11;95729.41;;;15.84;60.15
52957;BME280;38819;42.692;23.342;2023-09-30T05:19:37;95739.66;;;15.87;60.04
52957;BME280;38819;42.692;23.342;2023-09-30T05:22:05;95734.50;;;15.85;60.05
52957;BME280;38819;42.692;23.342;2023-09-30T05:24:34;95727.00;;;15.82;60.35
52957;BME280;38819;42.692;23.342;2023-09-30T05:27:00;95723.50;;;15.90;60.45
52957;BME280;38819;42.692;23.342;2023-09-30T05:29:26;95730.53;;;15.91;60.61
52957;BME280;38819;42.692;23.342;2023-09-30T05:31:52;95728.50;;;15.97;60.00
52957;BME280;38819;42.692;23.342;2023-09-30T05:34:18;95733.66;;;16.07;59.62
52957;BME280;38819;42.692;23.342;2023-09-30T05:36:43;95736.25;;;16.13;59.38
52957;BME280;38819;42.692;23.342;2023-09-30T05:39:08;95735.94;;;16.23;59.04
52957;BME280;38819;42.692;23.342;2023-09-30T05:41:36;95735.63;;;16.24;58.93
52957;BME280;38819;42.692;23.342;2023-09-30T05:44:03;95743.22;;;16.36;58.59
52957;BME280;38819;42.692;23.342;2023-09-30T05:46:30;95738.53;;;16.37;58.83
52957;BME280;38819;42.692;23.342;2023-09-30T05:48:56;95740.97;;;16.38;58.46
52957;BME280;38819;42.692;23.342;2023-09-30T05:51:22;95741.63;;;16.44;58.42
52957;BME280;38819;42.692;23.342;2023-09-30T05:53:48;95739.50;;;16.32;58.08
52957;BME280;38819;42.692;23.342;2023-09-30T05:56:13;95741.13;;;16.42;57.69
52957;BME280;38819;42.692;23.342;2023-09-30T05:58:43;95748.03;;;16.48;57.54
52957;BME280;38819;42.692;23.342;2023-09-30T06:01:09;95742.13;;;16.55;57.37
52957;BME280;38819;42.692;23.342;2023-09-30T06:03:45;95741.34;;;16.63;56.90
52957;BME280;38819;42.692;23.342;2023-09-30T06:06:15;95751.94;;;16.73;57.16
52957;BME280;38819;42.692;23.342;2023-09-30T06:08:44;95747.63;;;16.81;56.90
52957;BME280;38819;42.692;23.342;2023-09-30T06:11:17;95757.09;;;16.83;56.44
52957;BME280;38819;42.692;23.342;2023-09-30T06:13:43;95758.75;;;16.93;56.28
52957;BME280;38819;42.692;23.342;2023-09-30T06:16:08;95751.34;;;16.94;56.17
52957;BME280;38819;42.692;23.342;2023-09-30T06:18:36;95766.59;;;17.12;55.95
52957;BME280;38819;42.692;23.342;2023-09-30T06:21:01;95765.97;;;17.07;56.16
52957;BME280;38819;42.692;23.342;2023-09-30T06:23:29;95768.22;;;17.13;55.84
52957;BME280;38819;42.692;23.342;2023-09-30T06:25:55;95762.44;;;17.15;55.54
52957;BME280;38819;42.692;23.342;2023-09-30T06:28:21;95766.31;;;17.22;55.64
52957;BME280;38819;42.692;23.342;2023-09-30T06:30:52;95771.75;;;17.31;55.05
52957;BME280;38819;42.692;23.342;2023-09-30T06:33:17;95770.78;;;17.36;54.63
52957;BME280;38819;42.692;23.342;2023-09-30T06:35:43;95773.84;;;17.43;54.23
52957;BME280;38819;42.692;23.342;2023-09-30T06:38:17;95774.13;;;17.50;53.54
52957;BME280;38819;42.692;23.342;2023-09-30T06:40:43;95768.03;;;17.53;54.51
52957;BME280;38819;42.692;23.342;2023-09-30T06:43:08;95761.94;;;17.56;54.39
52957;BME280;38819;42.692;23.342;2023-09-30T06:45:34;95761.44;;;17.63;54.12
52957;BME280;38819;42.692;23.342;2023-09-30T06:47:59;95765.94;;;17.68;53.90
52957;BME280;38819;42.692;23.342;2023-09-30T06:50:24;95758.19;;;17.78;53.54
52957;BME280;38819;42.692;23.342;2023-09-30T06:52:50;95769.94;;;17.88;53.44
52957;BME280;38819;42.692;23.342;2023-09-30T06:55:15;95770.03;;;18.00;53.16
52957;BME280;38819;42.692;23.342;2023-09-30T06:57:43;95771.16;;;18.08;52.58
52957;BME280;38819;42.692;23.342;2023-09-30T07:00:11;95772.09;;;18.12;52.59
52957;BME280;38819;42.692;23.342;2023-09-30T07:02:37;95779.13;;;18.22;51.85
52957;BME280;38819;42.692;23.342;2023-09-30T07:05:11;95784.72;;;18.34;51.42
52957;BME280;38819;42.692;23.342;2023-09-30T07:07:37;95793.81;;;18.47;51.38
52957;BME280;38819;42.692;23.342;2023-09-30T07:10:05;95792.06;;;18.51;51.03
52957;BME280;38819;42.692;23.342;2023-09-30T07:12:31;95780.59;;;18.58;50.61
52957;BME280;38819;42.692;23.342;2023-09-30T07:14:58;95790.97;;;18.73;50.30
52957;BME280;38819;42.692;23.342;2023-09-30T07:17:24;95776.19;;;18.65;49.92
52957;BME280;38819;42.692;23.342;2023-09-30T07:19:49;95783.75;;;18.68;50.10
52957;BME280;38819;42.692;23.342;2023-09-30T07:22:15;95778.00;;;18.82;49.95
52957;BME280;38819;42.692;23.342;2023-09-30T07:24:42;95779.16;;;18.81;49.10
52957;BME280;38819;42.692;23.342;2023-09-30T07:27:07;95775.28;;;18.82;49.06
52957;BME280;38819;42.692;23.342;2023-09-30T07:29:32;95777.00;;;18.96;49.22
52957;BME280;38819;42.692;23.342;2023-09-30T07:31:58;95781.75;;;19.07;49.14
52957;BME280;38819;42.692;23.342;2023-09-30T07:34:23;95780.94;;;19.07;48.76
52957;BME280;38819;42.692;23.342;2023-09-30T07:36:49;95778.63;;;19.18;48.99
52957;BME280;38819;42.692;23.342;2023-09-30T07:39:14;95777.41;;;19.28;47.71
52957;BME280;38819;42.692;23.342;2023-09-30T07:41:40;95772.66;;;19.37;47.67
52957;BME280;38819;42.692;23.342;2023-09-30T07:44:05;95776.16;;;19.25;47.96
52957;BME280;38819;42.692;23.342;2023-09-30T07:46:31;95781.34;;;19.39;47.87
52957;BME280;38819;42.692;23.342;2023-09-30T07:48:56;95776.81;;;19.43;47.61
52957;BME280;38819;42.692;23.342;2023-09-30T07:51:21;95780.25;;;19.52;46.55
52957;BME280;38819;42.692;23.342;2023-09-30T07:53:47;95774.03;;;19.64;46.46
52957;BME280;38819;42.692;23.342;2023-09-30T07:56:13;95778.50;;;19.69;46.59
52957;BME280;38819;42.692;23.342;2023-09-30T07:58:39;95774.28;;;19.71;46.87
52957;BME280;38819;42.692;23.342;2023-09-30T08:01:04;95775.34;;;19.79;46.42
52957;BME280;38819;42.692;23.342;2023-09-30T08:03:30;95778.72;;;19.85;46.58
52957;BME280;38819;42.692;23.342;2023-09-30T08:05:56;95771.50;;;19.92;46.22
52957;BME280;38819;42.692;23.342;2023-09-30T08:08:21;95777.38;;;20.03;46.23
52957;BME280;38819;42.692;23.342;2023-09-30T08:10:49;95781.03;;;20.07;45.65
52957;BME280;38819;42.692;23.342;2023-09-30T08:13:15;95776.94;;;20.13;45.50
52957;BME280;38819;42.692;23.342;2023-09-30T08:15:40;95775.94;;;20.18;45.20
52957;BME280;38819;42.692;23.342;2023-09-30T08:18:06;95773.06;;;20.27;44.88
52957;BME280;38819;42.692;23.342;2023-09-30T08:20:33;95772.97;;;20.35;44.91
52957;BME280;38819;42.692;23.342;2023-09-30T08:22:59;95780.28;;;20.44;44.96
52957;BME280;38819;42.692;23.342;2023-09-30T08:25:24;95780.97;;;20.41;45.09
52957;BME280;38819;42.692;23.342;2023-09-30T08:27:50;95774.91;;;20.47;44.68
52957;BME280;38819;42.692;23.342;2023-09-30T08:30:16;95772.03;;;20.56;44.48
52957;BME280;38819;42.692;23.342;2023-09-30T08:32:42;95772.63;;;20.62;44.13
52957;BME280;38819;42.692;23.342;2023-09-30T08:35:08;95774.00;;;20.68;44.00
52957;BME280;38819;42.692;23.342;2023-09-30T08:37:34;95772.09;;;20.68;44.23
52957;BME280;38819;42.692;23.342;2023-09-30T08:40:00;95767.94;;;20.75;43.45
52957;BME280;38819;42.692;23.342;2023-09-30T08:42:27;95768.41;;;20.77;42.86
52957;BME280;38819;42.692;23.342;2023-09-30T08:44:59;95766.22;;;20.82;42.81
52957;BME280;38819;42.692;23.342;2023-09-30T08:47:28;95766.47;;;20.77;41.51
52957;BME280;38819;42.692;23.342;2023-09-30T08:49:54;95762.44;;;20.75;41.30
52957;BME280;38819;42.692;23.342;2023-09-30T08:52:23;95764.97;;;20.80;41.17
52957;BME280;38819;42.692;23.342;2023-09-30T08:54:49;95763.59;;;20.86;40.32
52957;BME280;38819;42.692;23.342;2023-09-30T08:57:17;95757.97;;;20.95;40.87
52957;BME280;38819;42.692;23.342;2023-09-30T08:59:45;95757.13;;;21.06;40.17
52957;BME280;38819;42.692;23.342;2023-09-30T09:02:11;95760.91;;;21.14;40.46
52957;BME280;38819;42.692;23.342;2023-09-30T09:04:37;95757.13;;;21.19;40.23
52957;BME280;38819;42.692;23.342;2023-09-30T09:07:02;95748.38;;;21.29;40.78
52957;BME280;38819;42.692;23.342;2023-09-30T09:09:28;95747.78;;;21.36;40.19
52957;BME280;38819;42.692;23.342;2023-09-30T09:11:53;95745.84;;;21.36;38.92
52957;BME280;38819;42.692;23.342;2023-09-30T09:14:19;95737.69;;;21.40;38.50
52957;BME280;38819;42.692;23.342;2023-09-30T09:16:55;95743.19;;;21.40;38.63
52957;BME280;38819;42.692;23.342;2023-09-30T09:19:21;95731.41;;;21.39;37.32
52957;BME280;38819;42.692;23.342;2023-09-30T09:22:00;95744.31;;;21.51;37.54
52957;BME280;38819;42.692;23.342;2023-09-30T09:24:31;95735.91;;;21.60;37.11
52957;BME280;38819;42.692;23.342;2023-09-30T09:27:04;95737.88;;;21.59;37.49
52957;BME280;38819;42.692;23.342;2023-09-30T09:29:30;95733.72;;;21.65;37.95
52957;BME280;38819;42.692;23.342;2023-09-30T09:32:09;95734.97;;;21.68;37.78
52957;BME280;38819;42.692;23.342;2023-09-30T09:34:35;95729.47;;;21.68;38.25
52957;BME280;38819;42.692;23.342;2023-09-30T09:37:21;95727.97;;;21.71;37.33
52957;BME280;38819;42.692;23.342;2023-09-30T09:39:51;95726.81;;;21.72;37.48
52957;BME280;38819;42.692;23.342;2023-09-30T09:42:31;95737.66;;;21.80;36.88
52957;BME280;38819;42.692;23.342;2023-09-30T09:45:02;95732.78;;;21.90;36.70
52957;BME280;38819;42.692;23.342;2023-09-30T09:47:29;95728.09;;;21.90;37.36
52957;BME280;38819;42.692;23.342;2023-09-30T09:49:57;95725.53;;;21.97;37.38
52957;BME280;38819;42.692;23.342;2023-09-30T09:52:23;95715.50;;;22.05;37.18
52957;BME280;38819;42.692;23.342;2023-09-30T09:54:50;95723.84;;;22.09;36.88
52957;BME280;38819;42.692;23.342;2023-09-30T09:57:16;95724.03;;;22.16;36.12
52957;BME280;38819;42.692;23.342;2023-09-30T09:59:43;95713.38;;;22.14;36.00
52957;BME280;38819;42.692;23.342;2023-09-30T10:02:13;95732.38;;;22.19;35.59
52957;BME280;38819;42.692;23.342;2023-09-30T10:04:46;95722.50;;;22.18;35.42
52957;BME280;38819;42.692;23.342;2023-09-30T10:07:20;95718.69;;;22.23;35.95
52957;BME280;38819;42.692;23.342;2023-09-30T10:09:49;95705.59;;;22.32;35.99
52957;BME280;38819;42.692;23.342;2023-09-30T10:12:16;95701.59;;;22.30;36.25
52957;BME280;38819;42.692;23.342;2023-09-30T10:14:42;95712.31;;;22.35;36.58
52957;BME280;38819;42.692;23.342;2023-09-30T10:17:07;95697.22;;;22.45;36.03
52957;BME280;38819;42.692;23.342;2023-09-30T10:19:33;95700.75;;;22.45;35.73
52957;BME280;38819;42.692;23.342;2023-09-30T10:24:53;95696.84;;;22.62;33.67
52957;BME280;38819;42.692;23.342;2023-09-30T10:29:48;95685.56;;;22.67;33.39
52957;BME280;38819;42.692;23.342;2023-09-30T10:32:15;95688.97;;;22.80;33.48
52957;BME280;38819;42.692;23.342;2023-09-30T10:34:50;95686.84;;;22.73;33.07
52957;BME280;38819;42.692;23.342;2023-09-30T10:37:24;95684.22;;;22.77;32.98
52957;BME280;38819;42.692;23.342;2023-09-30T10:39:57;95684.63;;;22.79;33.14
52957;BME280;38819;42.692;23.342;2023-09-30T10:42:50;95672.09;;;22.82;32.76
52957;BME280;38819;42.692;23.342;2023-09-30T10:50:55;95665.81;;;23.01;32.27
52957;BME280;38819;42.692;23.342;2023-09-30T10:53:22;95665.00;;;23.00;32.29
52957;BME280;38819;42.692;23.342;2023-09-30T10:55:57;95663.13;;;23.04;32.26
52957;BME280;38819;42.692;23.342;2023-09-30T10:58:44;95662.34;;;23.04;32.61
52957;BME280;38819;42.692;23.342;2023-09-30T11:01:15;95675.19;;;23.16;31.79
52957;BME280;38819;42.692;23.342;2023-09-30T11:03:42;95660.19;;;23.13;31.82
52957;BME280;38819;42.692;23.342;2023-09-30T11:06:11;95679.88;;;23.15;31.80
52957;BME280;38819;42.692;23.342;2023-09-30T11:08:41;95664.09;;;23.12;31.57
52957;BME280;38819;42.692;23.342;2023-09-30T11:11:10;95649.16;;;23.13;31.39
52957;BME280;38819;42.692;23.342;2023-09-30T11:13:36;95653.00;;;23.08;31.44
52957;BME280;38819;42.692;23.342;2023-09-30T11:16:03;95650.25;;;23.08;32.05
52957;BME280;38819;42.692;23.342;2023-09-30T11:18:30;95649.22;;;23.17;32.21
52957;BME280;38819;42.692;23.342;2023-09-30T11:21:10;95656.75;;;23.20;32.07
52957;BME280;38819;42.692;23.342;2023-09-30T11:23:39;95642.81;;;23.32;32.08
52957;BME280;38819;42.692;23.342;2023-09-30T11:26:06;95646.69;;;23.27;31.92
52957;BME280;38819;42.692;23.342;2023-09-30T11:28:39;95641.03;;;23.20;32.05
52957;BME280;38819;42.692;23.342;2023-09-30T11:31:08;95631.66;;;23.25;32.42
52957;BME280;38819;42.692;23.342;2023-09-30T11:33:53;95635.44;;;23.36;32.46
52957;BME280;38819;42.692;23.342;2023-09-30T11:36:20;95630.72;;;23.37;32.53
52957;BME280;38819;42.692;23.342;2023-09-30T11:38:51;95635.44;;;23.36;32.46
52957;BME280;38819;42.692;23.342;2023-09-30T11:41:20;95629.69;;;23.25;32.00
52957;BME280;38819;42.692;23.342;2023-09-30T11:46:30;95632.09;;;23.27;32.60
52957;BME280;38819;42.692;23.342;2023-09-30T11:49:03;95625.56;;;23.35;32.98
52957;BME280;38819;42.692;23.342;2023-09-30T11:51:34;95618.91;;;23.36;32.75
52957;BME280;38819;42.692;23.342;2023-09-30T11:54:08;95621.41;;;23.45;32.67
52957;BME280;38819;42.692;23.342;2023-09-30T11:56:33;95617.88;;;23.44;32.53
52957;BME280;38819;42.692;23.342;2023-09-30T11:58:59;95618.16;;;23.39;32.86
52957;BME280;38819;42.692;23.342;2023-09-30T12:01:24;95610.81;;;23.47;33.02
52957;BME280;38819;42.692;23.342;2023-09-30T12:03:51;95602.91;;;23.45;33.00
52957;BME280;38819;42.692;23.342;2023-09-30T12:06:17;95600.28;;;23.53;33.16
52957;BME280;38819;42.692;23.342;2023-09-30T12:08:42;95607.38;;;23.54;32.85
52957;BME280;38819;42.692;23.342;2023-09-30T12:11:08;95600.47;;;23.63;32.42
52957;BME280;38819;42.692;23.342;2023-09-30T12:13:38;95606.41;;;23.65;32.02
52957;BME280;38819;42.692;23.342;2023-09-30T12:16:03;95597.72;;;23.63;32.00
52957;BME280;38819;42.692;23.342;2023-09-30T12:18:29;95590.53;;;23.59;31.97
52957;BME280;38819;42.692;23.342;2023-09-30T12:20:54;95593.25;;;23.55;32.02
52957;BME280;38819;42.692;23.342;2023-09-30T12:23:20;95586.56;;;23.56;32.16
52957;BME280;38819;42.692;23.342;2023-09-30T12:25:46;95587.34;;;23.57;31.94
52957;BME280;38819;42.692;23.342;2023-09-30T12:28:12;95581.47;;;23.58;32.13
52957;BME280;38819;42.692;23.342;2023-09-30T12:30:39;95581.16;;;23.63;31.86
52957;BME280;38819;42.692;23.342;2023-09-30T12:33:05;95581.16;;;23.63;31.64
52957;BME280;38819;42.692;23.342;2023-09-30T12:35:32;95579.91;;;23.57;31.72
52957;BME280;38819;42.692;23.342;2023-09-30T12:37:57;95583.38;;;23.54;31.56
52957;BME280;38819;42.692;23.342;2023-09-30T12:40:23;95580.13;;;23.48;31.86
52957;BME280;38819;42.692;23.342;2023-09-30T12:42:48;95579.41;;;23.52;31.96
52957;BME280;38819;42.692;23.342;2023-09-30T12:45:14;95583.38;;;23.54;31.67
52957;BME280;38819;42.692;23.342;2023-09-30T12:47:39;95582.16;;;23.52;31.73
52957;BME280;38819;42.692;23.342;2023-09-30T12:50:06;95570.34;;;23.51;31.78
52957;BME280;38819;42.692;23.342;2023-09-30T12:52:34;95567.53;;;23.47;31.46
52957;BME280;38819;42.692;23.342;2023-09-30T12:55:00;95569.97;;;23.53;31.66
52957;BME280;38819;42.692;23.342;2023-09-30T12:57:25;95553.84;;;23.55;31.24
52957;BME280;38819;42.692;23.342;2023-09-30T12:59:51;95559.38;;;23.55;31.82
52957;BME280;38819;42.692;23.342;2023-09-30T13:02:16;95563.06;;;23.62;31.58
52957;BME280;38819;42.692;23.342;2023-09-30T13:04:44;95558.06;;;23.72;31.14